Time;durP1;ratioP1;P1;durP2;ratioP2;P2;SDS_P1;SDS_P2;PMS_P1;PMS_P2;Temp;Humidity;BMP_temperature;BMP_pressure;BME280_temperature;BME280_humidity;BME280_pressure;Samples;Min_cycle;Max_cycle;Signal;HPM_P1;HPM_P2
2021/03/22 00:00:28;;;;;;;24.15;13.35;;;;;;;20.70;20.90;97522.97;5061698;28;20032;-83
2021/03/22 00:02:54;;;;;;;20.23;11.10;;;;;;;21.44;20.07;97524.38;5061794;28;20067;-83
2021/03/22 00:05:21;;;;;;;19.27;11.00;;;;;;;20.94;20.59;97530.88;5066698;28;20468;-83
2021/03/22 00:07:49;;;;;;;18.27;10.13;;;;;;;20.46;21.27;97528.53;5066874;28;20040;-83
2021/03/22 00:10:18;;;;;;;19.80;11.43;;;;;;;21.41;20.19;97533.63;5065205;28;20056;-83
2021/03/22 00:12:45;;;;;;;19.90;10.38;;;;;;;22.07;19.38;97537.03;5074320;28;20045;-83
2021/03/22 00:15:13;;;;;;;16.52;9.70;;;;;;;22.07;19.32;97537.03;5073580;28;20086;-83
2021/03/22 00:17:39;;;;;;;19.13;10.52;;;;;;;21.66;19.50;97539.47;5074176;28;20036;-83
2021/03/22 00:20:06;;;;;;;18.23;10.32;;;;;;;21.85;19.52;97545.09;5065905;28;20032;-82
2021/03/22 00:22:32;;;;;;;17.17;9.60;;;;;;;20.91;20.42;97545.69;5066526;28;20026;-83
2021/03/22 00:24:58;;;;;;;17.67;9.85;;;;;;;21.36;20.11;97546.06;5069929;28;20032;-83
2021/03/22 00:27:24;;;;;;;19.55;10.32;;;;;;;21.58;19.74;97544.44;5049103;28;20119;-83
2021/03/22 00:29:50;;;;;;;19.55;10.85;;;;;;;21.91;19.58;97553.78;5073417;28;20087;-83
2021/03/22 00:32:16;;;;;;;19.67;11.02;;;;;;;22.28;19.09;97550.53;5064636;28;20381;-83
2021/03/22 00:34:42;;;;;;;17.52;9.68;;;;;;;22.51;18.78;97547.59;5060689;28;20031;-83
2021/03/22 00:37:08;;;;;;;19.35;11.10;;;;;;;22.54;18.66;97549.50;5055883;28;20052;-83
2021/03/22 00:39:34;;;;;;;19.70;9.70;;;;;;;22.03;19.26;97548.28;5068959;28;20033;-83
2021/03/22 00:42:00;;;;;;;18.30;10.68;;;;;;;22.29;18.97;97551.31;5083881;28;20032;-83
2021/03/22 00:44:27;;;;;;;16.50;9.45;;;;;;;22.69;18.54;97541.56;5061134;28;20402;-83
2021/03/22 00:46:54;;;;;;;19.67;10.23;;;;;;;22.68;18.56;97549.19;5046013;28;20033;-82
2021/03/22 00:49:20;;;;;;;19.67;11.07;;;;;;;22.81;18.50;97540.06;5065794;28;20031;-82
2021/03/22 00:51:46;;;;;;;19.55;11.00;;;;;;;22.74;18.41;97543.06;5072365;28;20025;-83
2021/03/22 00:54:12;;;;;;;15.32;9.80;;;;;;;22.76;18.48;97547.00;5061103;28;20043;-82
2021/03/22 00:56:38;;;;;;;23.48;11.95;;;;;;;22.88;18.49;97549.09;5070567;28;20032;-82
2021/03/22 00:59:05;;;;;;;20.98;11.15;;;;;;;22.40;18.86;97554.66;5060048;28;20348;-82
2021/03/22 01:01:31;;;;;;;17.42;9.65;;;;;;;22.20;19.15;97549.09;5080851;28;20442;-82
2021/03/22 01:03:57;;;;;;;18.20;9.57;;;;;;;21.68;19.66;97549.00;5053131;28;20381;-82
2021/03/22 01:06:23;;;;;;;20.60;11.60;;;;;;;22.08;19.17;97549.78;5074513;28;20028;-82
2021/03/22 01:08:49;;;;;;;20.63;12.40;;;;;;;21.94;19.36;97555.69;5058272;28;20036;-82
2021/03/22 01:11:19;;;;;;;21.40;12.55;;;;;;;20.70;20.96;97557.19;5081198;28;20040;-82
2021/03/22 01:13:50;;;;;;;20.73;10.57;;;;;;;21.01;20.58;97549.50;5061842;28;20033;-81
2021/03/22 01:16:26;;;;;;;;;;;;;;;21.16;20.45;97550.84;5054502;28;20555;-81
2021/03/22 01:18:54;;;;;;;20.35;11.27;;;;;;;21.25;20.11;97563.03;5058600;28;19917;-81
2021/03/22 01:21:53;;;;;;;23.00;11.93;;;;;;;21.46;19.90;97566.63;5064277;28;20546;-81
2021/03/22 01:24:22;;;;;;;18.88;9.85;;;;;;;21.04;20.15;97574.59;5014027;28;20052;-81
2021/03/22 01:26:51;;;;;;;18.48;9.10;;;;;;;19.59;21.90;97578.69;5056743;28;20029;-81
2021/03/22 01:29:27;;;;;;;20.20;10.75;;;;;;;20.59;20.96;97578.91;5057585;28;20104;-81
2021/03/22 01:31:57;;;;;;;20.00;10.40;;;;;;;20.68;20.83;97574.38;5062334;28;20040;-81
2021/03/22 01:34:23;;;;;;;16.35;8.55;;;;;;;20.79;20.60;97582.59;5061987;28;20025;-81
2021/03/22 01:36:49;;;;;;;19.65;9.85;;;;;;;21.24;20.23;97569.84;5054861;28;20032;-81
2021/03/22 01:39:20;;;;;;;21.17;10.95;;;;;;;21.55;19.75;97581.63;5054059;28;20036;-81
2021/03/22 01:42:19;;;;;;;18.92;10.68;;;;;;;22.11;19.18;97576.88;5054597;28;20511;-81
2021/03/22 01:44:49;;;;;;;22.17;11.35;;;;;;;22.59;18.58;97588.16;5055994;28;20044;-81
2021/03/22 01:47:20;;;;;;;21.65;10.88;;;;;;;22.37;18.76;97583.50;5059755;28;20127;-81
2021/03/22 01:50:05;;;;;;;23.60;11.83;;;;;;;21.73;19.60;97586.84;5050378;28;20441;-81
2021/03/22 01:52:35;;;;;;;23.40;12.48;;;;;;;21.95;19.34;97593.59;5053927;28;20279;-81
2021/03/22 01:55:02;;;;;;;21.40;11.68;;;;;;;21.74;19.46;97585.63;5056973;28;20033;-82
2021/03/22 01:57:40;;;;;;;21.27;11.68;;;;;;;22.11;19.12;97588.06;5054429;28;20099;-82
2021/03/22 02:00:27;;;;;;;23.00;11.88;;;;;;;22.31;19.03;97590.84;5054285;28;20056;-82
2021/03/22 02:03:05;;;;;;;20.55;12.52;;;;;;;22.46;18.58;97592.84;5063159;28;20101;-81
2021/03/22 02:05:32;;;;;;;18.75;10.65;;;;;;;22.36;18.71;97591.09;5055212;28;20171;-81
2021/03/22 02:08:11;;;;;;;20.40;11.70;;;;;;;22.38;18.67;97597.03;5062513;28;20025;-81
2021/03/22 02:10:40;;;;;;;20.35;9.77;;;;;;;21.70;19.44;97594.09;5053728;28;20032;-82
2021/03/22 02:13:07;;;;;;;20.08;11.00;;;;;;;21.59;19.59;97587.91;5054480;28;20037;-81
2021/03/22 02:15:34;;;;;;;22.75;11.70;;;;;;;21.77;19.46;97593.94;5053117;28;20033;-81
2021/03/22 02:18:09;;;;;;;22.35;12.88;;;;;;;21.56;19.67;97588.78;5061587;28;20039;-81
2021/03/22 02:21:13;;;;;;;18.73;10.82;;;;;;;21.45;19.86;97590.22;5070373;28;20390;-81
2021/03/22 02:24:08;;;;;;;21.88;11.77;;;;;;;20.55;20.99;97598.50;5064978;28;20035;-81
2021/03/22 02:26:56;;;;;;;18.02;9.32;;;;;;;20.89;20.50;97597.53;5063089;28;20036;-82
2021/03/22 02:29:53;;;;;;;21.80;11.00;;;;;;;20.88;20.44;97591.19;5068577;28;20064;-82
2021/03/22 02:32:37;;;;;;;16.80;9.52;;;;;;;20.82;20.57;97603.28;5060782;28;20039;-82
2021/03/22 02:35:44;;;;;;;19.20;10.43;;;;;;;21.13;20.18;97601.94;5061205;28;20037;-82
2021/03/22 02:38:40;;;;;;;15.35;8.63;;;;;;;20.40;20.89;97608.28;5032699;28;20132;-82
2021/03/22 02:41:21;;;;;;;19.33;10.23;;;;;;;20.30;21.18;97600.88;5066701;28;20083;-82
2021/03/22 02:44:24;;;;;;;13.88;8.27;;;;;;;19.77;21.74;97600.75;5042652;28;20075;-82
2021/03/22 02:47:18;;;;;;;16.05;8.55;;;;;;;19.52;21.66;97612.19;5023439;28;20091;-82
2021/03/22 02:49:45;;;;;;;13.05;6.90;;;;;;;19.97;21.22;97612.84;5062892;28;20036;-83
2021/03/22 02:52:29;;;;;;;12.00;6.97;;;;;;;19.70;21.19;97618.31;5060462;28;20037;-82
2021/03/22 02:55:33;;;;;;;13.65;7.07;;;;;;;20.43;20.72;97618.59;5072267;28;20060;-82
2021/03/22 02:58:22;;;;;;;11.32;6.10;;;;;;;19.76;21.34;97624.25;5015775;28;20521;-82
2021/03/22 03:01:10;;;;;;;11.30;7.75;;;;;;;17.12;23.88;97635.00;5065342;28;20032;-82
2021/03/22 03:03:37;;;;;;;11.57;5.78;;;;;;;19.28;21.75;97627.91;5063560;28;20051;-82
2021/03/22 03:06:04;;;;;;;8.77;5.88;;;;;;;17.44;23.70;97646.03;5060560;28;20116;-82
2021/03/22 03:08:34;;;;;;;10.10;5.03;;;;;;;17.71;23.38;97638.88;5066988;28;20036;-82
2021/03/22 03:11:01;;;;;;;8.60;4.15;;;;;;;19.44;20.99;97630.16;5066816;28;20110;-82
2021/03/22 03:13:27;;;;;;;7.65;3.88;;;;;;;18.72;21.66;97639.53;5082228;28;20029;-82
2021/03/22 03:15:54;;;;;;;7.05;3.70;;;;;;;18.28;22.51;97644.94;5064193;28;20392;-82
2021/03/22 03:18:20;;;;;;;7.45;3.80;;;;;;;19.40;20.87;97642.53;5080471;28;20040;-82
2021/03/22 03:20:46;;;;;;;7.80;3.45;;;;;;;18.84;21.02;97654.94;5074009;28;20051;-82
2021/03/22 03:23:13;;;;;;;5.47;2.88;;;;;;;19.68;20.41;97647.81;5093110;28;20036;-82
2021/03/22 03:25:40;;;;;;;4.70;2.38;;;;;;;20.27;19.63;97654.69;5090308;28;20033;-82
2021/03/22 03:28:07;;;;;;;5.40;2.53;;;;;;;20.35;19.33;97658.94;5087610;28;20063;-83
2021/03/22 03:30:36;;;;;;;6.03;2.92;;;;;;;19.53;20.01;97657.53;5081263;28;20036;-83
2021/03/22 03:33:04;;;;;;;5.55;2.60;;;;;;;19.33;20.47;97668.41;5065326;28;20023;-83
2021/03/22 03:35:34;;;;;;;4.85;2.42;;;;;;;18.59;21.32;97669.81;5059816;28;20528;-83
2021/03/22 03:38:01;;;;;;;5.82;3.33;;;;;;;16.62;23.47;97677.78;5090322;28;20078;-83
2021/03/22 03:40:31;;;;;;;4.47;2.83;;;;;;;16.33;23.92;97677.69;5061789;28;20033;-82
2021/03/22 03:42:58;;;;;;;11.32;4.18;;;;;;;15.66;24.44;97669.09;5054277;28;20032;-82
2021/03/22 03:45:26;;;;;;;5.72;2.88;;;;;;;15.30;25.27;97685.84;5059123;28;20025;-81
2021/03/22 03:47:53;;;;;;;7.40;4.00;;;;;;;14.67;25.75;97681.41;5070139;28;20040;-82
2021/03/22 03:50:25;;;;;;;8.70;3.22;;;;;;;14.86;25.76;97685.91;5077232;28;20082;-82
2021/03/22 03:52:52;;;;;;;7.55;3.85;;;;;;;13.86;26.51;97692.31;5061322;28;20118;-83
2021/03/22 03:55:20;;;;;;;5.80;2.38;;;;;;;17.21;22.81;97677.00;5067417;28;20524;-83
2021/03/22 03:57:47;;;;;;;8.35;3.47;;;;;;;14.80;25.47;97699.28;5069953;28;20043;-83
2021/03/22 04:00:36;;;;;;;9.45;4.00;;;;;;;14.56;25.56;97696.31;5083682;28;20028;-83
2021/03/22 04:03:26;;;;;;;6.80;2.80;;;;;;;16.52;22.82;97707.06;5080390;28;20044;-83
2021/03/22 04:06:00;;;;;;;8.82;3.22;;;;;;;15.18;24.74;97709.88;5077569;28;20036;-83
2021/03/22 04:08:28;;;;;;;8.77;3.78;;;;;;;14.56;25.39;97715.63;5083485;28;20162;-83
2021/03/22 04:10:56;;;;;;;7.47;2.97;;;;;;;15.76;24.17;97714.63;5079525;28;20052;-83
2021/03/22 04:13:23;;;;;;;6.90;3.38;;;;;;;16.23;22.88;97717.22;5075951;28;20039;-83
2021/03/22 04:15:49;;;;;;;6.15;2.55;;;;;;;18.85;20.23;97718.50;5078078;28;20036;-83
2021/03/22 04:18:16;;;;;;;5.35;3.08;;;;;;;18.38;20.48;97719.94;5082447;28;20033;-83
2021/03/22 04:20:42;;;;;;;5.32;2.70;;;;;;;17.64;21.43;97717.38;5067155;28;20500;-83
2021/03/22 04:23:08;;;;;;;4.38;2.40;;;;;;;18.76;19.99;97725.72;5073038;28;20392;-83
2021/03/22 04:25:34;;;;;;;5.68;2.17;;;;;;;16.27;22.79;97722.75;5078793;28;20025;-83
2021/03/22 04:28:01;;;;;;;6.45;2.83;;;;;;;17.03;21.82;97729.72;5072368;28;20036;-83
2021/03/22 04:30:27;;;;;;;7.13;2.60;;;;;;;17.66;20.87;97731.69;5071414;28;20028;-83
2021/03/22 04:32:54;;;;;;;4.32;2.28;;;;;;;17.15;21.64;97732.06;5071239;28;20040;-83
2021/03/22 04:35:22;;;;;;;5.88;3.30;;;;;;;16.59;22.34;97746.66;5076901;28;20369;-82
2021/03/22 04:37:49;;;;;;;5.05;2.95;;;;;;;16.91;21.72;97743.97;5072221;28;20052;-83
2021/03/22 04:40:18;;;;;;;5.30;2.55;;;;;;;17.61;20.70;97751.53;5080694;28;20090;-83
2021/03/22 04:42:44;;;;;;;8.60;3.33;;;;;;;16.47;22.05;97752.53;5074544;28;20488;-82
2021/03/22 04:45:11;;;;;;;3.78;2.50;;;;;;;15.22;23.25;97754.94;5077308;28;20515;-82
2021/03/22 04:47:37;;;;;;;5.13;2.60;;;;;;;14.35;24.71;97763.16;5073030;28;20048;-82
2021/03/22 04:50:06;;;;;;;5.32;2.03;;;;;;;14.52;24.01;97766.09;5076311;28;20028;-82
2021/03/22 04:52:32;;;;;;;3.97;2.78;;;;;;;15.93;22.54;97761.00;5056050;28;20031;-82
2021/03/22 04:54:59;;;;;;;3.13;2.08;;;;;;;16.92;21.80;97753.84;5071167;28;20507;-82
2021/03/22 04:57:29;;;;;;;6.13;2.55;;;;;;;17.42;20.94;97759.44;5061931;28;20098;-83
2021/03/22 04:59:55;;;;;;;4.53;2.30;;;;;;;17.14;20.80;97766.56;5070342;28;20086;-82
2021/03/22 05:02:21;;;;;;;6.43;2.65;;;;;;;16.68;21.08;97773.22;5071418;28;20081;-82
2021/03/22 05:04:48;;;;;;;3.75;1.73;;;;;;;18.24;20.00;97763.66;5059440;28;20484;-83
2021/03/22 05:07:16;;;;;;;5.35;2.55;;;;;;;17.97;19.87;97768.13;5070602;28;20039;-82
2021/03/22 05:09:42;;;;;;;2.38;1.95;;;;;;;16.57;21.52;97776.72;5072269;28;20480;-83
2021/03/22 05:12:09;;;;;;;4.57;2.45;;;;;;;17.10;21.40;97792.72;5070398;28;20052;-82
2021/03/22 05:14:36;;;;;;;4.40;2.05;;;;;;;17.57;20.67;97791.56;5049220;28;20025;-81
2021/03/22 05:17:02;;;;;;;2.53;1.70;;;;;;;17.41;20.79;97793.94;5071974;28;20082;-82
2021/03/22 05:19:29;;;;;;;3.42;1.83;;;;;;;17.64;20.51;97794.34;5075019;28;20035;-82
2021/03/22 05:21:56;;;;;;;5.00;2.08;;;;;;;17.87;20.38;97786.38;5070623;28;20040;-82
2021/03/22 05:24:22;;;;;;;2.83;1.67;;;;;;;17.33;21.17;97792.31;5069485;28;20554;-82
2021/03/22 05:26:49;;;;;;;2.80;1.85;;;;;;;17.78;20.78;97795.09;5049792;28;20036;-82
2021/03/22 05:29:15;;;;;;;6.05;2.85;;;;;;;17.44;20.96;97807.00;5059919;28;20040;-83
2021/03/22 05:31:42;;;;;;;3.90;1.98;;;;;;;17.95;20.26;97805.41;5055701;28;20489;-83
2021/03/22 05:34:09;;;;;;;2.88;1.60;;;;;;;18.38;19.87;97808.06;5044458;28;20021;-83
2021/03/22 05:36:35;;;;;;;3.53;1.77;;;;;;;18.65;19.65;97802.84;5058458;28;20101;-83
2021/03/22 05:39:02;;;;;;;6.15;2.75;;;;;;;15.97;22.15;97816.38;5062504;28;20029;-83
2021/03/22 05:41:35;;;;;;;5.18;2.53;;;;;;;15.88;23.16;97822.25;5059062;28;20028;-83
2021/03/22 05:44:11;;;;;;;5.03;2.78;;;;;;;14.19;24.97;97824.03;5046695;28;20029;-83
2021/03/22 05:46:56;;;;;;;3.97;2.15;;;;;;;15.11;24.41;97830.69;5063171;28;20526;-83
2021/03/22 05:49:47;;;;;;;6.22;3.20;;;;;;;13.86;25.92;97829.50;5055164;28;20021;-84
2021/03/22 05:52:22;;;;;;;5.13;2.20;;;;;;;13.85;25.90;97828.72;5061042;28;20024;-83
2021/03/22 05:55:02;;;;;;;3.95;2.45;;;;;;;14.97;24.93;97842.38;5056924;28;20037;-84
2021/03/22 05:57:50;;;;;;;5.90;2.22;;;;;;;16.01;23.12;97825.53;5048611;28;20028;-83
2021/03/22 06:00:24;;;;;;;4.40;2.33;;;;;;;16.57;22.84;97831.34;5062121;28;20024;-83
2021/03/22 06:03:10;;;;;;;5.20;2.95;;;;;;;16.36;22.90;97834.03;5060759;28;20047;-83
2021/03/22 06:05:48;;;;;;;6.88;3.53;;;;;;;15.61;23.76;97837.50;5059648;28;20537;-83
2021/03/22 06:08:41;;;;;;;8.90;4.72;;;;;;;14.54;25.01;97849.38;5060811;28;20032;-84
2021/03/22 06:11:21;;;;;;;8.32;3.63;;;;;;;13.99;26.54;97861.22;5056965;28;20045;-83
2021/03/22 06:13:56;;;;;;;6.47;3.35;;;;;;;16.05;23.60;97856.78;5057024;28;20033;-82
2021/03/22 06:16:31;;;;;;;11.13;4.88;;;;;;;16.59;22.63;97851.97;5058034;28;20036;-83
2021/03/22 06:19:01;;;;;;;7.20;3.53;;;;;;;17.94;20.99;97850.25;5046556;28;20036;-83
2021/03/22 06:21:31;;;;;;;8.57;4.28;;;;;;;17.60;21.03;97849.84;5047695;28;20038;-84
2021/03/22 06:23:57;;;;;;;4.85;3.10;;;;;;;16.19;22.92;97862.41;5057626;28;20040;-80
2021/03/22 06:26:39;;;;;;;5.03;2.83;;;;;;;17.99;20.93;97858.19;5057491;28;20512;-82
2021/03/22 06:29:18;;;;;;;3.97;2.25;;;;;;;17.00;21.79;97866.38;5063792;28;20033;-81
2021/03/22 06:31:45;;;;;;;5.57;3.80;;;;;;;16.72;22.12;97857.97;5063192;28;20033;-81
2021/03/22 06:34:14;;;;;;;3.85;2.20;;;;;;;17.55;21.64;97863.34;5057308;28;20100;-81
2021/03/22 06:36:41;;;;;;;6.10;2.95;;;;;;;17.91;21.01;97864.94;5053433;28;20032;-81
2021/03/22 06:39:11;;;;;;;8.00;4.25;;;;;;;16.11;23.13;97875.41;5063342;28;20108;-82
2021/03/22 06:41:43;;;;;;;6.45;3.70;;;;;;;16.56;22.93;97871.34;5058430;28;20119;-83
2021/03/22 06:44:36;;;;;;;9.15;3.08;;;;;;;16.62;22.55;97869.03;5058700;28;20064;-84
2021/03/22 06:47:14;;;;;;;5.70;3.60;;;;;;;15.50;23.80;97884.41;5044720;28;20029;-87
2021/03/22 06:49:46;;;;;;;4.97;2.70;;;;;;;16.45;22.61;97879.56;5044226;28;20033;-86
2021/03/22 06:52:25;;;;;;;5.53;2.97;;;;;;;17.89;20.91;97883.97;5067808;28;20025;-85
2021/03/22 06:54:57;;;;;;;7.60;2.88;;;;;;;16.57;22.38;97884.81;5068768;28;20036;-86
2021/03/22 06:57:26;;;;;;;8.90;4.05;;;;;;;14.01;25.32;97896.72;5068791;28;20107;-86
2021/03/22 07:00:07;;;;;;;8.00;3.83;;;;;;;13.55;25.79;97898.75;5057661;28;20064;-86
2021/03/22 07:02:40;;;;;;;5.65;3.63;;;;;;;13.45;26.24;97907.63;5059688;28;20032;-86
2021/03/22 07:05:26;;;;;;;4.60;2.60;;;;;;;14.04;25.67;97910.59;5063152;28;20082;-87
2021/03/22 07:08:08;;;;;;;4.88;2.83;;;;;;;16.32;22.91;97908.00;5069755;28;20028;-89
2021/03/22 07:10:40;;;;;;;3.03;2.25;;;;;;;16.80;21.25;97908.69;5044102;28;20044;-88
2021/03/22 07:13:32;;;;;;;6.72;3.42;;;;;;;15.11;24.04;97916.38;5093472;28;20043;-86
2021/03/22 07:16:18;;;;;;;;;;;;;;;14.17;25.28;97925.78;5074039;28;20495;-86
2021/03/22 07:19:18;;;;;;;4.95;2.33;;;;;;;15.85;23.42;97934.56;5076611;28;20010;-87
2021/03/22 07:21:57;;;;;;;5.20;2.33;;;;;;;17.87;21.27;97922.47;5079124;28;20113;-88
2021/03/22 07:24:35;;;;;;;8.30;3.53;;;;;;;15.30;23.50;97932.81;5085274;28;20433;-87
2021/03/22 07:27:20;;;;;;;7.97;3.42;;;;;;;15.65;22.91;97932.38;5070575;28;20425;-87
2021/03/22 07:30:34;;;;;;;5.80;3.40;;;;;;;15.47;23.19;97936.97;5078554;28;20031;-87
2021/03/22 07:33:17;;;;;;;7.78;3.40;;;;;;;14.30;25.49;97932.72;5061369;28;20105;-91
2021/03/22 07:36:10;;;;;;;4.93;2.45;;;;;;;16.30;22.92;97933.31;5080178;28;20186;-87
2021/03/22 07:38:57;;;;;;;6.53;2.50;;;;;;;17.08;21.44;97929.00;5081544;28;20035;-87
2021/03/22 07:41:36;;;;;;;2.83;1.80;;;;;;;16.25;22.19;97936.44;5085954;28;20032;-87
2021/03/22 07:44:38;;;;;;;5.55;3.15;;;;;;;15.85;22.61;97950.34;5067963;28;20062;-87
2021/03/22 07:47:21;;;;;;;3.08;2.20;;;;;;;18.59;19.67;97933.16;5086363;28;20032;-87
2021/03/22 07:50:08;;;;;;;5.00;2.80;;;;;;;18.66;19.40;97935.91;5087166;28;20028;-87
2021/03/22 07:53:12;;;;;;;3.05;1.60;;;;;;;19.44;18.02;97944.00;5080757;28;20024;-87
2021/03/22 07:55:45;;;;;;;3.63;1.73;;;;;;;21.16;17.15;97928.53;5073347;28;20048;-90
2021/03/22 07:58:45;;;;;;;2.83;1.83;;;;;;;19.54;18.70;97935.56;5093818;28;20028;-87
2021/03/22 08:01:33;;;;;;;8.48;3.75;;;;;;;17.11;21.20;97942.09;5073207;28;20034;-88
2021/03/22 08:04:26;;;;;;;5.80;3.05;;;;;;;17.09;21.52;97938.13;5090329;28;20036;-87
2021/03/22 08:07:17;;;;;;;4.82;2.83;;;;;;;16.13;22.39;97938.72;5071282;28;20051;-87
2021/03/22 08:09:57;;;;;;;5.25;2.10;;;;;;;16.36;22.14;97942.06;5084497;28;20380;-87
2021/03/22 08:12:32;;;;;;;4.10;2.40;;;;;;;15.01;22.67;97953.00;5064605;28;20137;-87
2021/03/22 08:15:30;;;;;;;10.38;2.80;;;;;;;14.21;24.07;97945.16;5074270;28;20488;-88
2021/03/22 08:18:15;;;;;;;6.15;2.60;;;;;;;14.84;25.68;97950.81;4999214;28;20519;-87
2021/03/22 08:20:58;;;;;;;7.70;2.38;;;;;;;13.39;25.33;97959.53;5069807;28;20028;-87
2021/03/22 08:23:50;;;;;;;4.93;2.08;;;;;;;13.28;24.75;97955.00;5059045;28;20024;-88
2021/03/22 08:26:25;;;;;;;3.20;1.55;;;;;;;12.97;24.44;97964.19;5066476;28;20086;-87
2021/03/22 08:29:00;;;;;;;3.05;1.55;;;;;;;13.23;23.20;97956.09;5064337;28;20550;-87
2021/03/22 08:31:39;;;;;;;3.03;1.55;;;;;;;12.83;24.85;97959.19;5063048;28;20053;-87
2021/03/22 08:34:17;;;;;;;5.20;1.58;;;;;;;14.15;23.55;97958.47;5060665;28;20041;-87
2021/03/22 08:36:59;;;;;;;4.78;1.75;;;;;;;15.18;22.12;97955.19;5071264;28;20028;-87
2021/03/22 08:39:52;;;;;;;3.85;1.83;;;;;;;14.50;22.76;97958.25;5062601;28;20171;-88
2021/03/22 08:42:36;;;;;;;4.60;1.63;;;;;;;11.75;25.23;97969.25;5065685;28;20399;-88
2021/03/22 08:45:29;;;;;;;4.47;1.33;;;;;;;12.98;23.76;97958.31;5069216;28;20029;-88
2021/03/22 08:48:14;;;;;;;3.00;1.23;;;;;;;13.05;24.14;97957.66;5058723;28;20091;-88
2021/03/22 08:50:41;;;;;;;4.75;1.48;;;;;;;15.27;21.40;97958.44;5067540;28;20056;-87
2021/03/22 08:53:10;;;;;;;2.58;1.20;;;;;;;15.37;21.53;97957.78;5064769;28;20071;-88
2021/03/22 08:55:39;;;;;;;2.70;0.90;;;;;;;11.22;23.92;97953.28;5066633;28;20644;-89
2021/03/22 08:58:14;;;;;;;3.58;1.25;;;;;;;12.10;24.62;97955.56;5064221;28;20189;-88
2021/03/22 09:00:52;;;;;;;2.75;1.33;;;;;;;14.13;23.98;97948.97;5062302;28;20039;-88
2021/03/22 09:03:31;;;;;;;5.70;1.20;;;;;;;13.36;24.61;97963.03;5068444;28;20556;-88
2021/03/22 09:06:06;;;;;;;3.25;1.50;;;;;;;12.41;21.93;97961.81;5046156;28;20393;-88
2021/03/22 09:08:50;;;;;;;3.00;1.02;;;;;;;12.37;23.32;97965.63;5062392;28;20024;-89
2021/03/22 09:11:26;;;;;;;3.75;1.00;;;;;;;11.95;23.00;97967.41;5061509;28;20052;-89
2021/03/22 09:13:59;;;;;;;2.88;0.70;;;;;;;11.64;23.89;97973.66;5065153;28;20064;-89
2021/03/22 09:16:25;;;;;;;2.03;0.85;;;;;;;13.44;22.89;97963.97;5055234;28;20032;-89
2021/03/22 09:19:06;;;;;;;1.90;0.80;;;;;;;14.76;20.00;97962.94;5045225;28;20029;-88
2021/03/22 09:24:55;;;;;;;4.05;1.60;;;;;;;14.67;21.10;97966.00;5062149;28;20705;-89
2021/03/22 09:27:28;;;;;;;3.65;1.00;;;;;;;14.57;21.31;97963.06;5061174;28;20106;-87
2021/03/22 09:30:00;;;;;;;2.22;0.90;;;;;;;15.11;21.94;97977.22;5063717;28;20447;-91
2021/03/22 09:32:27;;;;;;;4.25;1.00;;;;;;;15.44;19.58;97968.94;5058285;28;20082;-91
2021/03/22 09:34:56;;;;;;;2.22;0.80;;;;;;;14.01;24.52;97974.81;5047291;28;20434;-91
2021/03/22 09:37:46;;;;;;;1.52;0.70;;;;;;;14.12;21.03;97969.47;5058361;28;20025;-90
2021/03/22 09:40:32;;;;;;;1.77;0.50;;;;;;;12.91;22.21;97980.19;5057327;28;20033;-88
2021/03/22 09:43:16;;;;;;;4.75;0.80;;;;;;;14.74;20.03;97973.56;5057684;28;20047;-89
2021/03/22 09:45:52;;;;;;;1.60;0.60;;;;;;;16.84;18.53;97968.53;5060895;28;20059;-89
2021/03/22 09:48:37;;;;;;;2.63;0.80;;;;;;;16.09;18.55;97979.44;5057516;28;20112;-90
2021/03/22 09:51:04;;;;;;;1.92;0.60;;;;;;;16.99;17.51;97969.41;5065898;28;20063;-90
2021/03/22 09:53:59;;;;;;;2.78;0.80;;;;;;;17.00;18.62;97962.66;5048167;28;20397;-90
2021/03/22 09:56:34;;;;;;;1.80;0.68;;;;;;;17.14;18.37;97971.84;5065367;28;20032;-89
2021/03/22 09:59:39;;;;;;;4.00;0.60;;;;;;;15.20;18.22;97966.66;5061987;28;20450;-92
2021/03/22 10:02:45;;;;;;;1.98;0.57;;;;;;;15.53;19.49;97961.13;5063397;28;20029;-90
2021/03/22 10:05:52;;;;;;;2.70;0.57;;;;;;;14.97;18.38;97971.50;5045515;28;20087;-90
2021/03/22 10:08:39;;;;;;;1.50;0.50;;;;;;;16.35;17.39;97963.44;5054931;28;20033;-90
2021/03/22 10:11:25;;;;;;;1.60;0.68;;;;;;;16.82;16.45;97961.78;5056326;28;20568;-90
2021/03/22 10:13:58;;;;;;;3.22;0.68;;;;;;;15.26;18.46;97976.22;5065508;28;20071;-89
2021/03/22 10:16:31;;;;;;;2.13;0.68;;;;;;;15.82;18.47;97971.28;5085123;28;20495;-89
2021/03/22 10:19:00;;;;;;;3.70;0.70;;;;;;;16.91;18.56;97964.97;5066090;28;20028;-90
2021/03/22 10:21:36;;;;;;;3.78;0.50;;;;;;;19.08;15.86;97958.03;5081581;28;20111;-90
2021/03/22 10:24:05;;;;;;;1.40;0.80;;;;;;;16.62;16.91;97964.03;5079395;28;20027;-89
2021/03/22 10:26:45;;;;;;;1.98;0.50;;;;;;;15.30;17.84;97974.28;5083923;28;20047;-90
2021/03/22 10:29:17;;;;;;;1.27;0.65;;;;;;;15.71;18.33;97973.16;5082477;28;20032;-90
2021/03/22 10:31:43;;;;;;;2.22;0.60;;;;;;;16.61;17.05;97959.69;5093202;28;20032;-89
2021/03/22 10:34:21;;;;;;;2.33;0.90;;;;;;;18.37;15.47;97954.59;5100764;28;20569;-89
2021/03/22 10:36:48;;;;;;;1.25;0.50;;;;;;;19.21;14.63;97956.38;5067174;28;20041;-88
2021/03/22 10:39:36;;;;;;;2.78;0.77;;;;;;;18.88;15.56;97959.66;5067347;28;20081;-90
2021/03/22 10:42:19;;;;;;;2.47;0.55;;;;;;;19.08;15.81;97971.94;5090459;28;20040;-90
2021/03/22 10:44:45;;;;;;;1.58;0.60;;;;;;;16.42;17.45;97971.81;5084501;28;20036;-91
2021/03/22 10:47:16;;;;;;;1.30;0.60;;;;;;;17.08;17.11;97962.28;5085062;28;20036;-90
2021/03/22 10:49:43;;;;;;;0.90;0.50;;;;;;;16.96;17.17;97959.88;5087397;28;20374;-91
2021/03/22 10:52:30;;;;;;;1.23;0.47;;;;;;;19.08;15.25;97954.44;5083635;28;20429;-90
2021/03/22 10:54:58;;;;;;;0.73;0.35;;;;;;;21.54;13.59;97942.41;5086374;28;20036;-90
2021/03/22 10:57:34;;;;;;;0.52;0.52;;;;;;;19.86;14.32;97949.28;5055545;28;20552;-90
2021/03/22 11:00:25;;;;;;;1.00;0.50;;;;;;;19.76;12.82;97952.94;5090862;28;20027;-90
2021/03/22 11:02:53;;;;;;;3.42;0.43;;;;;;;17.80;14.66;97958.56;5093285;28;20044;-89
2021/03/22 11:05:27;;;;;;;0.75;0.50;;;;;;;16.66;16.53;97952.97;5091812;28;20530;-89
2021/03/22 11:08:04;;;;;;;2.05;0.40;;;;;;;15.69;17.04;97960.88;5068579;28;20044;-90
2021/03/22 11:10:33;;;;;;;2.05;0.52;;;;;;;15.16;17.06;97963.88;5068358;28;20144;-89
2021/03/22 11:13:03;;;;;;;1.05;0.47;;;;;;;14.87;17.77;97958.34;5067783;28;20045;-89
2021/03/22 11:15:37;;;;;;;0.68;0.40;;;;;;;14.53;17.89;97958.31;5081794;28;20036;-90
2021/03/22 11:18:06;;;;;;;1.02;0.43;;;;;;;15.43;17.57;97974.81;5088267;28;20032;-90
2021/03/22 11:20:33;;;;;;;1.27;0.40;;;;;;;15.49;16.69;97976.09;5084288;28;20048;-90
2021/03/22 11:23:41;;;;;;;2.83;0.50;;;;;;;13.72;18.12;97976.28;5089463;28;20479;-90
2021/03/22 11:26:21;;;;;;;0.68;0.28;;;;;;;13.60;18.81;97981.19;5081078;28;20048;-89
2021/03/22 11:28:48;;;;;;;1.48;0.32;;;;;;;15.54;17.86;97979.31;5083581;28;20036;-89
2021/03/22 11:31:28;;;;;;;1.00;0.43;;;;;;;13.75;19.24;97997.63;5081912;28;20458;-91
2021/03/22 11:34:04;;;;;;;1.45;0.50;;;;;;;14.10;20.08;97994.66;5086053;28;20040;-90
2021/03/22 11:36:43;;;;;;;5.50;0.70;;;;;;;13.89;20.64;98005.34;5092029;28;20024;-90
2021/03/22 11:39:23;;;;;;;1.05;0.40;;;;;;;15.56;19.00;97999.13;5086503;28;20059;-90
2021/03/22 11:41:55;;;;;;;1.55;0.40;;;;;;;14.92;20.02;97996.72;5077145;28;20127;-90
2021/03/22 11:44:32;;;;;;;1.10;0.40;;;;;;;18.49;16.65;97989.56;5092217;28;20054;-91
2021/03/22 11:47:35;;;;;;;1.00;0.50;;;;;;;20.57;14.91;97991.34;5074732;28;20032;-89
2021/03/22 11:50:20;;;;;;;0.93;0.40;;;;;;;20.69;14.51;97982.47;5094554;28;20044;-85
2021/03/22 11:52:47;;;;;;;0.45;0.20;;;;;;;20.85;15.18;97977.09;5080918;28;20095;-85
2021/03/22 11:55:33;;;;;;;1.40;0.35;;;;;;;20.85;14.33;97976.31;5081377;28;20036;-85
2021/03/22 11:58:00;;;;;;;2.83;0.75;;;;;;;18.42;17.70;97981.97;5078003;28;20036;-86
2021/03/22 12:00:30;;;;;;;7.03;0.60;;;;;;;17.56;17.82;97989.84;5081039;28;20028;-86
2021/03/22 12:03:09;;;;;;;1.48;0.50;;;;;;;16.33;18.92;97987.97;5075555;28;20033;-84
2021/03/22 12:05:41;;;;;;;1.73;0.50;;;;;;;16.83;18.72;97985.53;5068759;28;20036;-84
2021/03/22 12:08:45;;;;;;;2.13;0.88;;;;;;;16.11;18.31;97991.72;5071732;28;20041;-84
2021/03/22 12:11:17;;;;;;;2.22;0.63;;;;;;;17.54;17.06;97984.69;5067910;28;20044;-85